createdAt,value
2023-04-28T00:00:28.241Z,1.4
2023-04-28T00:01:37.936Z,1.3
2023-04-28T00:02:46.648Z,1.8
2023-04-28T00:03:56.297Z,1.1
2023-04-28T00:05:05.037Z,1.3
2023-04-28T00:06:13.630Z,1.4
2023-04-28T00:07:23.339Z,2
2023-04-28T00:08:32.966Z,1.3
2023-04-28T00:09:42.634Z,1.6
2023-04-28T00:10:51.259Z,1.3
2023-04-28T00:11:59.917Z,1.4
2023-04-28T00:13:09.600Z,1.6
2023-04-28T00:14:18.297Z,1.4
2023-04-28T00:15:27.913Z,1.5
2023-04-28T00:16:37.736Z,1.7
2023-04-28T00:17:45.387Z,1.1
2023-04-28T00:18:55.052Z,1.3
2023-04-28T00:20:03.803Z,1.4
2023-04-28T00:21:12.479Z,1.3
2023-04-28T00:22:21.135Z,1.3
2023-04-28T00:23:30.859Z,1.2
2023-04-28T00:24:40.540Z,1.2
2023-04-28T00:25:50.198Z,1.3
2023-04-28T00:26:59.840Z,1.4
2023-04-28T00:28:09.524Z,1.2
2023-04-28T00:29:19.260Z,1.3
2023-04-28T00:30:26.931Z,1.1
2023-04-28T00:31:35.666Z,1.4
2023-04-28T00:32:45.291Z,1.4
2023-04-28T00:33:52.951Z,1.1
2023-04-28T00:35:02.617Z,1.4
2023-04-28T00:36:12.260Z,1.1
2023-04-28T00:37:20.909Z,1.2
2023-04-28T00:38:30.609Z,1.1
2023-04-28T00:39:39.307Z,1.3
2023-04-28T00:40:47.977Z,0.9
2023-04-28T00:41:57.609Z,1.2
2023-04-28T00:43:05.278Z,1
2023-04-28T00:44:14.089Z,1.1
2023-04-28T00:45:22.581Z,1.2
2023-04-28T00:46:31.338Z,1
2023-04-28T00:47:41.031Z,1.1
2023-04-28T00:48:48.669Z,1.1
2023-04-28T00:49:58.311Z,1.2
2023-04-28T00:51:08.072Z,1.1
2023-04-28T00:52:16.726Z,1.1
2023-04-28T00:53:26.425Z,1.1
2023-04-28T00:54:35.093Z,1.1
2023-04-28T00:55:43.766Z,1.1
2023-04-28T00:56:53.442Z,1.1
2023-04-28T00:58:01.180Z,1.2
2023-04-28T00:59:09.819Z,1.3
2023-04-28T01:00:19.469Z,1
2023-04-28T01:01:27.221Z,1.1
2023-04-28T01:02:36.924Z,0.9
2023-04-28T01:03:45.775Z,0.9
2023-04-28T01:04:53.137Z,1.1
2023-04-28T01:06:02.797Z,1
2023-04-28T01:07:11.493Z,1.1
2023-04-28T01:08:21.173Z,1
2023-04-28T01:09:30.845Z,0.8
2023-04-28T01:10:39.567Z,1.2
2023-04-28T01:11:49.263Z,1.4
2023-04-28T01:12:58.915Z,1
2023-04-28T01:14:07.617Z,1.1
2023-04-28T01:15:18.323Z,1
2023-04-28T01:16:25.970Z,1.1
2023-04-28T01:17:34.649Z,1
2023-04-28T01:18:44.319Z,0.9
2023-04-28T01:19:52.970Z,1.2
2023-04-28T01:21:02.634Z,0.9
2023-04-28T01:22:11.272Z,1
2023-04-28T01:23:18.993Z,1.3
2023-04-28T01:24:27.647Z,1.1
2023-04-28T01:25:35.295Z,1.3
2023-04-28T01:26:44.960Z,1.2
2023-04-28T01:27:54.722Z,1
2023-04-28T01:29:04.385Z,1.1
2023-04-28T01:30:14.019Z,0.9
2023-04-28T01:31:22.715Z,1
2023-04-28T01:32:30.384Z,1
2023-04-28T01:33:40.086Z,1.3
2023-04-28T01:34:48.775Z,1.4
2023-04-28T01:35:57.390Z,1
2023-04-28T01:37:07.056Z,1.2
2023-04-28T01:38:14.707Z,1.2
2023-04-28T01:39:24.363Z,1.2
2023-04-28T01:40:34.020Z,1.4
2023-04-28T01:41:43.769Z,1.1
2023-04-28T01:42:53.673Z,0.9
2023-04-28T01:44:02.388Z,1.3
2023-04-28T01:45:12.034Z,1.3
2023-04-28T01:46:21.714Z,1.2
2023-04-28T01:47:31.411Z,1
2023-04-28T01:48:41.123Z,1.2
2023-04-28T01:49:49.821Z,0.9
2023-04-28T01:50:57.492Z,1
2023-04-28T01:52:07.125Z,1.4
2023-04-28T01:53:16.894Z,1.1
2023-04-28T01:54:25.530Z,1.1
2023-04-28T01:55:35.170Z,1.2
2023-04-28T01:56:43.825Z,1.4
2023-04-28T01:57:53.518Z,1.1
2023-04-28T01:59:03.171Z,1.1
2023-04-28T02:00:11.873Z,1.1
2023-04-28T02:01:21.507Z,1.1
2023-04-28T02:02:30.321Z,1
2023-04-28T02:03:38.938Z,1.1
2023-04-28T02:04:48.547Z,1
2023-04-28T02:05:56.175Z,1
2023-04-28T02:07:05.880Z,1
2023-04-28T02:08:15.544Z,1
2023-04-28T02:09:24.176Z,1
2023-04-28T02:10:33.810Z,1.3
2023-04-28T02:11:41.448Z,1.2
2023-04-28T02:12:51.125Z,1.1
2023-04-28T02:14:00.775Z,1.2
2023-04-28T02:15:09.441Z,1.3
2023-04-28T02:16:19.249Z,1
2023-04-28T02:17:27.856Z,0.9
2023-04-28T02:18:36.528Z,1.2
2023-04-28T02:19:46.202Z,1.2
2023-04-28T02:20:55.888Z,1.1
2023-04-28T02:22:03.588Z,0.8
2023-04-28T02:23:13.263Z,1
2023-04-28T02:24:21.916Z,1
2023-04-28T02:25:29.563Z,0.9
2023-04-28T02:26:38.238Z,0.9
2023-04-28T02:27:46.917Z,1.1
2023-04-28T02:28:56.574Z,1
2023-04-28T02:30:06.242Z,1.1
2023-04-28T02:31:14.919Z,1.1
2023-04-28T02:32:24.580Z,1.2
2023-04-28T02:33:33.231Z,1.1
2023-04-28T02:34:41.868Z,1.1
2023-04-28T02:35:50.522Z,1.1
2023-04-28T02:36:58.166Z,1.1
2023-04-28T02:38:06.933Z,1.2
2023-04-28T02:39:16.596Z,1.3
2023-04-28T02:40:25.257Z,1.1
2023-04-28T02:41:34.912Z,1
2023-04-28T02:42:44.551Z,0.9
2023-04-28T02:43:52.287Z,1.1
2023-04-28T02:45:01.972Z,1.1
2023-04-28T02:46:10.625Z,0.9
2023-04-28T02:47:20.240Z,0.9
2023-04-28T02:48:29.939Z,1.3
2023-04-28T02:49:39.604Z,1.1
2023-04-28T02:50:49.260Z,1
2023-04-28T02:51:57.953Z,0.9
2023-04-28T02:53:06.601Z,1.1
2023-04-28T02:54:16.438Z,1
2023-04-28T02:55:24.904Z,1
2023-04-28T02:56:33.546Z,1.1
2023-04-28T02:57:42.246Z,0.8
2023-04-28T02:58:50.937Z,1.1
2023-04-28T03:00:00.609Z,1.1
2023-04-28T03:01:09.278Z,0.9
2023-04-28T03:02:17.952Z,1
2023-04-28T03:03:27.666Z,0.8
2023-04-28T03:04:37.264Z,1
2023-04-28T03:05:45.919Z,1
2023-04-28T03:06:55.609Z,1.1
2023-04-28T03:08:04.295Z,1.1
2023-04-28T03:09:14.020Z,1
2023-04-28T03:10:23.678Z,1
2023-04-28T03:11:31.328Z,1.1
2023-04-28T03:12:40.994Z,0.9
2023-04-28T03:13:49.652Z,1
2023-04-28T03:14:59.291Z,0.9
2023-04-28T03:16:08.083Z,0.8
2023-04-28T03:17:17.656Z,0.8
2023-04-28T03:18:26.330Z,1.1
2023-04-28T03:19:35.071Z,0.9
2023-04-28T03:20:44.767Z,0.8
2023-04-28T03:21:54.382Z,0.8
2023-04-28T03:23:04.070Z,0.7
2023-04-28T03:24:14.072Z,1
2023-04-28T03:25:22.525Z,0.9
2023-04-28T03:26:32.219Z,0.9
2023-04-28T03:27:41.866Z,1.1
2023-04-28T03:28:51.625Z,0.9
2023-04-28T03:30:01.269Z,1
2023-04-28T03:31:09.929Z,1.1
2023-04-28T03:32:18.668Z,0.9
2023-04-28T03:33:28.309Z,0.8
2023-04-28T03:34:36.006Z,0.8
2023-04-28T03:35:45.674Z,0.9
2023-04-28T03:36:54.379Z,1
2023-04-28T03:38:03.051Z,0.8
2023-04-28T03:39:12.781Z,1.4
2023-04-28T03:40:22.461Z,0.9
2023-04-28T03:41:31.138Z,1.1
2023-04-28T03:42:40.832Z,0.6
2023-04-28T03:43:48.592Z,1
2023-04-28T03:44:58.295Z,0.9
2023-04-28T03:46:06.971Z,1.1
2023-04-28T03:47:14.591Z,1.1
2023-04-28T03:48:24.335Z,0.9
2023-04-28T03:49:31.981Z,0.9
2023-04-28T03:50:40.636Z,0.8
2023-04-28T03:51:50.285Z,0.9
2023-04-28T03:52:58.949Z,0.7
2023-04-28T03:54:08.628Z,0.9
2023-04-28T03:55:18.290Z,1
2023-04-28T03:56:26.973Z,1
2023-04-28T03:57:36.648Z,1
2023-04-28T03:58:45.355Z,1.1
2023-04-28T03:59:54.005Z,1.1
2023-04-28T04:01:03.702Z,1.1
2023-04-28T04:02:11.414Z,1
2023-04-28T04:03:21.129Z,0.9
2023-04-28T04:04:31.003Z,1
2023-04-28T04:05:39.389Z,0.7
2023-04-28T04:06:48.006Z,0.9
2023-04-28T04:07:56.666Z,1.2
2023-04-28T04:09:05.388Z,0.9
2023-04-28T04:10:15.011Z,0.9
2023-04-28T04:11:22.667Z,0.9
2023-04-28T04:12:32.317Z,1.1
2023-04-28T04:13:41.956Z,0.7
2023-04-28T04:14:51.680Z,0.8
2023-04-28T04:16:01.372Z,1.1
2023-04-28T04:17:10.022Z,1
2023-04-28T04:18:19.678Z,1.1
2023-04-28T04:19:29.390Z,0.9
2023-04-28T04:20:38.048Z,0.8
2023-04-28T04:21:46.790Z,0.7
2023-04-28T04:22:56.529Z,0.7
2023-04-28T04:24:04.264Z,0.8
2023-04-28T04:25:13.018Z,0.6
2023-04-28T04:26:22.651Z,0.5
2023-04-28T04:27:32.304Z,0.7
2023-04-28T04:28:41.957Z,0.6
2023-04-28T04:29:50.819Z,0.6
2023-04-28T04:30:59.547Z,1
2023-04-28T04:32:08.280Z,0.7
2023-04-28T04:33:16.937Z,0.6
2023-04-28T04:34:26.566Z,0.6
2023-04-28T04:35:36.266Z,0.9
2023-04-28T04:36:45.939Z,0.9
2023-04-28T04:37:55.601Z,0.8
2023-04-28T04:39:04.322Z,1
2023-04-28T04:40:12.002Z,0.8
2023-04-28T04:41:21.665Z,1
2023-04-28T04:42:31.282Z,0.8
2023-04-28T04:43:40.953Z,0.8
2023-04-28T04:44:50.671Z,0.8
2023-04-28T04:45:59.341Z,0.8
2023-04-28T04:47:09.005Z,0.9
2023-04-28T04:48:18.695Z,1.2
2023-04-28T04:49:26.357Z,1.1
2023-04-28T04:50:36.074Z,1
2023-04-28T04:51:45.717Z,1.1
2023-04-28T04:52:54.432Z,0.9
2023-04-28T04:54:04.083Z,0.9
2023-04-28T04:55:12.796Z,3.2
2023-04-28T04:56:22.450Z,0.8
2023-04-28T04:57:32.171Z,1
2023-04-28T04:58:40.777Z,1.1
2023-04-28T04:59:50.470Z,1
2023-04-28T05:01:00.146Z,0.8
2023-04-28T05:02:08.845Z,0.9
2023-04-28T05:03:18.586Z,0.7
2023-04-28T05:04:26.246Z,1.1
2023-04-28T05:05:35.889Z,0.8
2023-04-28T05:06:45.563Z,0.9
2023-04-28T05:07:54.206Z,1.1
2023-04-28T05:09:03.852Z,0.9
2023-04-28T05:10:13.515Z,1
2023-04-28T05:11:22.186Z,1.2
2023-04-28T05:12:31.857Z,7.2
2023-04-28T05:13:40.538Z,4
2023-04-28T05:14:50.174Z,1.1
2023-04-28T05:15:58.880Z,0.8
2023-04-28T05:17:06.520Z,1.1
2023-04-28T05:18:16.302Z,0.9
2023-04-28T05:19:23.959Z,0.7
2023-04-28T05:20:32.665Z,0.7
2023-04-28T05:21:42.323Z,0.9
2023-04-28T05:22:52.017Z,0.9
2023-04-28T05:24:01.696Z,0.8
2023-04-28T05:25:10.389Z,0.8
2023-04-28T05:26:20.090Z,0.7
2023-04-28T05:27:29.739Z,0.7
2023-04-28T05:28:38.411Z,0.7
2023-04-28T05:29:48.108Z,0.9
2023-04-28T05:30:57.790Z,0.8
2023-04-28T05:32:05.492Z,0.9
2023-04-28T05:33:15.148Z,0.9
2023-04-28T05:34:23.917Z,1.1
2023-04-28T05:35:32.619Z,0.8
2023-04-28T05:36:42.355Z,0.8
2023-04-28T05:37:51.064Z,0.9
2023-04-28T05:39:00.739Z,0.8
2023-04-28T05:40:10.615Z,0.8
2023-04-28T05:41:19.309Z,0.8
2023-04-28T05:42:29.955Z,0.8
2023-04-28T05:43:39.702Z,1
2023-04-28T05:44:48.348Z,0.7
2023-04-28T05:45:57.197Z,0.7
2023-04-28T05:47:05.939Z,1.1
2023-04-28T05:48:14.611Z,1
2023-04-28T05:49:24.303Z,1
2023-04-28T05:50:32.017Z,1
2023-04-28T05:51:41.668Z,0.9
2023-04-28T05:52:50.314Z,0.9
2023-04-28T05:54:00.145Z,0.8
2023-04-28T05:55:08.825Z,0.9
2023-04-28T05:56:18.546Z,0.9
2023-04-28T05:57:28.584Z,0.8
2023-04-28T05:58:37.863Z,0.8
2023-04-28T05:59:46.545Z,0.7
2023-04-28T06:00:56.255Z,0.8
2023-04-28T06:02:05.001Z,0.9
2023-04-28T06:03:14.737Z,1.1
2023-04-28T06:04:24.756Z,0.9
2023-04-28T06:05:33.347Z,0.9
2023-04-28T06:06:42.696Z,0.9
2023-04-28T06:07:53.795Z,0.7
2023-04-28T06:09:02.991Z,0.8
2023-04-28T06:10:12.681Z,1.1
2023-04-28T06:11:22.439Z,0.9
2023-04-28T06:12:31.964Z,0.9
2023-04-28T06:13:40.656Z,0.9
2023-04-28T06:14:48.305Z,0.9
2023-04-28T06:15:56.003Z,1.1
2023-04-28T06:17:04.667Z,1
2023-04-28T06:18:13.329Z,1.1
2023-04-28T06:19:22.025Z,0.9
2023-04-28T06:20:31.702Z,0.8
2023-04-28T06:21:39.341Z,0.8
2023-04-28T06:22:48.162Z,0.9
2023-04-28T06:23:57.805Z,0.8
2023-04-28T06:25:06.476Z,0.8
2023-04-28T06:26:17.543Z,0.8
2023-04-28T06:27:26.827Z,0.8
2023-04-28T06:28:34.467Z,0.5
2023-04-28T06:29:44.128Z,0.6
2023-04-28T06:30:52.832Z,0.8
2023-04-28T06:32:00.548Z,0.8
2023-04-28T06:33:10.320Z,0.6
2023-04-28T06:34:19.021Z,0.6
2023-04-28T06:35:28.627Z,0.6
2023-04-28T06:36:37.388Z,0.7
2023-04-28T06:37:46.066Z,0.6
2023-04-28T06:38:55.775Z,0.8
2023-04-28T06:40:04.375Z,0.6
2023-04-28T06:41:14.051Z,0.7
2023-04-28T06:42:21.833Z,0.7
2023-04-28T06:43:30.472Z,0.6
2023-04-28T06:44:40.172Z,0.7
2023-04-28T06:45:48.863Z,0.8
2023-04-28T06:46:57.620Z,0.7
2023-04-28T06:48:07.252Z,1
2023-04-28T06:49:14.952Z,0.8
2023-04-28T06:50:24.756Z,0.9
2023-04-28T06:51:34.381Z,0.7
2023-04-28T06:52:44.096Z,1
2023-04-28T06:53:53.794Z,1
2023-04-28T06:55:03.461Z,0.8
2023-04-28T06:56:13.159Z,1.1
2023-04-28T06:57:22.931Z,1
2023-04-28T06:58:31.648Z,1
2023-04-28T06:59:40.291Z,1
2023-04-28T07:00:49.008Z,0.9
2023-04-28T07:01:58.704Z,0.7
2023-04-28T07:03:08.796Z,0.8
2023-04-28T07:04:18.445Z,0.6
2023-04-28T07:05:26.696Z,0.8
2023-04-28T07:06:36.382Z,0.8
2023-04-28T07:07:46.022Z,1.2
2023-04-28T07:08:54.674Z,2.1
2023-04-28T07:10:05.028Z,2.3
2023-04-28T07:11:14.565Z,1.7
2023-04-28T07:12:24.231Z,1.3
2023-04-28T07:13:31.870Z,0.8
2023-04-28T07:14:39.573Z,0.7
2023-04-28T07:15:49.283Z,0.9
2023-04-28T07:16:56.978Z,0.9
2023-04-28T07:18:06.716Z,1
2023-04-28T07:19:16.520Z,1.2
2023-04-28T07:20:26.214Z,1.5
2023-04-28T07:21:36.702Z,1.6
2023-04-28T07:22:45.363Z,1
2023-04-28T07:23:54.064Z,1.2
2023-04-28T07:25:02.781Z,1
2023-04-28T07:26:12.631Z,0.8
2023-04-28T07:27:22.167Z,0.5
2023-04-28T07:28:32.014Z,0.5
2023-04-28T07:29:39.662Z,0.5
2023-04-28T07:30:49.397Z,0.7
2023-04-28T07:31:59.085Z,0.5
2023-04-28T07:33:08.831Z,0.6
2023-04-28T07:34:18.741Z,0.5
2023-04-28T07:35:26.125Z,0.6
2023-04-28T07:36:35.800Z,0.7
2023-04-28T07:37:45.526Z,1
2023-04-28T07:38:55.132Z,1.2
2023-04-28T07:40:04.894Z,1.2
2023-04-28T07:41:14.474Z,1.1
2023-04-28T07:42:24.168Z,1.3
2023-04-28T07:43:33.820Z,1.4
2023-04-28T07:44:42.496Z,1.2
2023-04-28T07:45:51.288Z,1.3
2023-04-28T07:47:01.000Z,1.2
2023-04-28T07:48:10.705Z,1
2023-04-28T07:49:20.461Z,0.9
2023-04-28T07:50:29.180Z,0.9
2023-04-28T07:51:38.847Z,0.7
2023-04-28T07:52:48.645Z,0.8
2023-04-28T07:53:58.315Z,0.5
2023-04-28T07:55:07.997Z,0.5
2023-04-28T07:56:17.690Z,0.4
2023-04-28T07:57:26.362Z,0.6
2023-04-28T07:58:36.029Z,0.5
2023-04-28T07:59:44.685Z,0.6
2023-04-28T08:00:54.344Z,0.5
2023-04-28T08:02:04.059Z,0.5
2023-04-28T08:03:12.860Z,0.4
2023-04-28T08:04:22.721Z,0.5
2023-04-28T08:05:32.266Z,0.5
2023-04-28T08:06:40.687Z,0.7
2023-04-28T08:07:50.367Z,0.5
2023-04-28T08:08:59.041Z,0.5
2023-04-28T08:10:07.693Z,0.5
2023-04-28T08:11:16.370Z,0.5
2023-04-28T08:12:25.130Z,0.3
2023-04-28T08:13:34.798Z,0.5
2023-04-28T08:14:43.473Z,0.4
2023-04-28T08:15:53.199Z,0.4
2023-04-28T08:17:01.873Z,0.4
2023-04-28T08:18:09.613Z,0.5
2023-04-28T08:19:19.328Z,0.4
2023-04-28T08:20:28.962Z,0.4
2023-04-28T08:21:38.634Z,0.7
2023-04-28T08:22:48.316Z,0.6
2023-04-28T08:23:56.030Z,0.8
2023-04-28T08:25:05.702Z,0.9
2023-04-28T08:26:14.391Z,0.9
2023-04-28T08:27:22.107Z,0.7
2023-04-28T08:28:31.783Z,1
2023-04-28T08:29:40.488Z,1.1
2023-04-28T08:30:49.160Z,0.9
2023-04-28T08:31:58.879Z,0.9
2023-04-28T08:33:09.565Z,1
2023-04-28T08:34:19.427Z,1
2023-04-28T08:35:28.955Z,1
2023-04-28T08:36:38.740Z,0.7
2023-04-28T08:37:48.436Z,0.8
2023-04-28T08:38:57.090Z,0.7
2023-04-28T08:40:05.778Z,0.7
2023-04-28T08:41:15.500Z,0.5
2023-04-28T08:42:25.196Z,0.7
2023-04-28T08:43:34.893Z,0.5
2023-04-28T08:44:43.552Z,0.4
2023-04-28T08:45:51.247Z,0.6
2023-04-28T08:47:00.990Z,0.6
2023-04-28T08:48:09.676Z,0.5
2023-04-28T08:49:18.385Z,0.7
2023-04-28T08:50:27.917Z,0.6
2023-04-28T08:51:38.554Z,0.8
2023-04-28T08:52:48.260Z,0.8
2023-04-28T08:54:18.718Z,0.7
2023-04-28T08:55:07.534Z,0.9
2023-04-28T08:56:16.236Z,1.2
2023-04-28T08:57:25.973Z,1.1
2023-04-28T08:58:35.604Z,1
2023-04-28T08:59:45.260Z,1
2023-04-28T09:00:53.955Z,1
2023-04-28T09:02:01.685Z,1.1
2023-04-28T09:03:11.442Z,1
2023-04-28T09:04:21.534Z,1.2
2023-04-28T09:05:30.768Z,1.2
2023-04-28T09:06:40.391Z,1.1
2023-04-28T09:07:50.159Z,1.2
2023-04-28T09:08:59.854Z,1.3
2023-04-28T09:10:08.505Z,1.2
2023-04-28T09:11:17.190Z,1.2
2023-04-28T09:12:25.866Z,1.1
2023-04-28T09:13:35.547Z,1.2
2023-04-28T09:14:44.172Z,1.1
2023-04-28T09:15:53.872Z,0.9
2023-04-28T09:17:01.538Z,0.8
2023-04-28T09:18:11.210Z,0.7
2023-04-28T09:19:19.875Z,0.7
2023-04-28T09:20:28.517Z,0.3
2023-04-28T09:21:38.189Z,0.4
2023-04-28T09:22:47.873Z,0.6
2023-04-28T09:23:56.502Z,0.4
2023-04-28T09:25:06.251Z,0.6
2023-04-28T09:26:13.876Z,0.6
2023-04-28T09:27:23.565Z,0.6
2023-04-28T09:28:33.242Z,0.4
2023-04-28T09:29:40.906Z,0.6
2023-04-28T09:30:50.555Z,0.6
2023-04-28T09:32:00.331Z,0.5
2023-04-28T09:33:11.499Z,0.5
2023-04-28T09:34:20.631Z,0.5
2023-04-28T09:35:28.310Z,0.7
2023-04-28T09:36:37.962Z,0.6
2023-04-28T09:37:47.780Z,0.7
2023-04-28T09:38:57.365Z,0.9
2023-04-28T09:40:07.036Z,1.1
2023-04-28T09:41:14.700Z,1.3
2023-04-28T09:42:23.463Z,1.3
2023-04-28T09:43:33.130Z,1.2
2023-04-28T09:44:41.791Z,1.3
2023-04-28T09:45:51.587Z,1.1
2023-04-28T09:47:00.198Z,1.4
2023-04-28T09:48:08.994Z,1.1
2023-04-28T09:49:18.583Z,0.9
2023-04-28T09:50:26.229Z,1
2023-04-28T09:51:34.902Z,0.7
2023-04-28T09:52:44.575Z,0.6
2023-04-28T09:53:52.320Z,0.6
2023-04-28T09:55:01.977Z,0.5
2023-04-28T09:56:10.665Z,0.5
2023-04-28T09:57:20.371Z,0.5
2023-04-28T09:58:30.110Z,0.4
2023-04-28T09:59:38.794Z,0.5
2023-04-28T10:00:48.428Z,0.5
2023-04-28T10:01:58.100Z,0.7
2023-04-28T10:03:06.921Z,0.6
2023-04-28T10:04:16.529Z,0.9
2023-04-28T10:05:26.260Z,0.8
2023-04-28T10:06:33.810Z,0.9
2023-04-28T10:07:43.507Z,1.2
2023-04-28T10:08:52.293Z,1.3
2023-04-28T10:10:01.955Z,1.5
2023-04-28T10:11:11.640Z,1.5
2023-04-28T10:12:21.301Z,1.4
2023-04-28T10:13:31.010Z,1.2
2023-04-28T10:14:39.704Z,1.4
2023-04-28T10:15:49.601Z,1.3
2023-04-28T10:16:59.106Z,1.3
2023-04-28T10:18:07.848Z,1.3
2023-04-28T10:19:16.468Z,1.1
2023-04-28T10:20:26.259Z,1.1
2023-04-28T10:21:34.939Z,0.9
2023-04-28T10:22:44.620Z,1.4
2023-04-28T10:23:54.284Z,0.9
2023-04-28T10:25:01.948Z,0.9
2023-04-28T10:26:11.639Z,1
2023-04-28T10:27:21.329Z,1.1
2023-04-28T10:28:30.024Z,1
2023-04-28T10:29:39.684Z,0.9
2023-04-28T10:30:48.370Z,0.9
2023-04-28T10:31:58.056Z,1.1
2023-04-28T10:33:06.846Z,1
2023-04-28T10:34:15.549Z,1
2023-04-28T10:35:25.187Z,1
2023-04-28T10:36:36.445Z,0.7
2023-04-28T10:37:45.610Z,0.8
2023-04-28T10:38:55.301Z,0.9
2023-04-28T10:40:05.703Z,0.8
2023-04-28T10:41:15.652Z,1.2
2023-04-28T10:42:25.315Z,1
2023-04-28T10:43:34.025Z,1
2023-04-28T10:44:43.683Z,0.9
2023-04-28T10:45:53.767Z,1
2023-04-28T10:47:01.163Z,1.2
2023-04-28T10:48:10.901Z,1.3
2023-04-28T10:49:19.756Z,0.9
2023-04-28T10:50:38.339Z,1.1
2023-04-28T10:51:40.008Z,0.8
2023-04-28T10:52:47.749Z,0.8
2023-04-28T10:53:56.433Z,0.8
2023-04-28T10:55:12.675Z,0.8
2023-04-28T10:56:15.734Z,0.7
2023-04-28T10:57:25.420Z,0.7
2023-04-28T10:58:35.108Z,0.6
2023-04-28T10:59:44.761Z,0.8
2023-04-28T11:00:54.421Z,1
2023-04-28T11:02:02.166Z,0.8
2023-04-28T11:03:10.934Z,0.9
2023-04-28T11:04:20.669Z,0.7
2023-04-28T11:05:29.153Z,0.7
2023-04-28T11:06:38.874Z,0.6
2023-04-28T11:07:48.538Z,0.8
2023-04-28T11:08:57.227Z,0.9
2023-04-28T11:10:06.918Z,0.8
2023-04-28T11:11:15.566Z,0.7
2023-04-28T11:12:24.217Z,0.6
2023-04-28T11:13:33.969Z,0.8
2023-04-28T11:14:43.591Z,0.6
2023-04-28T11:15:53.292Z,0.6
2023-04-28T11:17:01.938Z,0.5
2023-04-28T11:18:10.613Z,0.5
2023-04-28T11:19:20.324Z,0.5
2023-04-28T11:20:27.995Z,0.5
2023-04-28T11:21:37.701Z,0.4
2023-04-28T11:22:47.344Z,0.5
2023-04-28T11:23:54.994Z,0.5
2023-04-28T11:25:04.634Z,0.3
2023-04-28T11:26:13.300Z,0.4
2023-04-28T11:27:20.932Z,0.4
2023-04-28T11:28:30.596Z,0.4
2023-04-28T11:29:39.282Z,0.5
2023-04-28T11:30:47.924Z,0.4
2023-04-28T11:31:57.602Z,0.4
2023-04-28T11:33:05.248Z,0.3
2023-04-28T11:34:14.905Z,0.3
2023-04-28T11:35:24.621Z,0.2
2023-04-28T11:36:33.264Z,0.2
2023-04-28T11:37:42.974Z,0.1
2023-04-28T11:38:51.619Z,0.2
2023-04-28T11:40:00.307Z,0.3
2023-04-28T11:41:09.964Z,0.4
2023-04-28T11:42:17.600Z,0.4
2023-04-28T11:43:28.981Z,0.3
2023-04-28T11:44:36.926Z,0.4
2023-04-28T11:45:45.587Z,0.4
2023-04-28T11:46:55.239Z,0.3
2023-04-28T11:48:02.967Z,0.3
2023-04-28T11:49:12.596Z,0.4
2023-04-28T11:50:22.286Z,0.6
2023-04-28T11:51:29.943Z,0.6
2023-04-28T11:52:39.602Z,0.7
2023-04-28T11:53:47.300Z,0.6
2023-04-28T11:54:55.950Z,0.7
2023-04-28T11:56:05.587Z,0.7
2023-04-28T11:57:14.469Z,0.8
2023-04-28T11:58:21.948Z,0.5
2023-04-28T11:59:31.629Z,0.6
2023-04-28T12:00:39.361Z,0.8
2023-04-28T12:01:49.040Z,0.8
2023-04-28T12:02:58.761Z,0.8
2023-04-28T12:04:07.482Z,0.9
2023-04-28T12:05:17.069Z,0.8
2023-04-28T12:06:24.664Z,0.7
2023-04-28T12:07:34.334Z,0.7
2023-04-28T12:08:43.998Z,0.7
2023-04-28T12:09:53.724Z,0.7
2023-04-28T12:11:03.365Z,0.7
2023-04-28T12:12:13.029Z,0.7
2023-04-28T12:13:21.676Z,0.8
2023-04-28T12:14:31.356Z,0.8
2023-04-28T12:15:39.096Z,0.8
2023-04-28T12:16:48.758Z,0.8
2023-04-28T12:17:58.424Z,0.8
2023-04-28T12:19:07.096Z,0.9
2023-04-28T12:20:16.755Z,0.7
2023-04-28T12:21:25.502Z,0.7
2023-04-28T12:22:33.156Z,0.8
2023-04-28T12:23:42.806Z,0.8
2023-04-28T12:24:50.483Z,0.8
2023-04-28T12:26:00.217Z,1
2023-04-28T12:27:09.956Z,1
2023-04-28T12:28:17.609Z,1.4
2023-04-28T12:29:27.304Z,1.2
2023-04-28T12:30:35.983Z,1.5
2023-04-28T12:31:44.698Z,2.1
2023-04-28T12:32:54.450Z,1.8
2023-04-28T12:34:04.074Z,2
2023-04-28T12:35:13.773Z,2
2023-04-28T12:36:23.453Z,1.5
2023-04-28T12:37:32.110Z,1.4
2023-04-28T12:38:41.753Z,1.1
2023-04-28T12:39:50.425Z,1
2023-04-28T12:40:59.078Z,1.3
2023-04-28T12:42:08.842Z,1.3
2023-04-28T12:43:17.568Z,1.1
2023-04-28T12:44:27.224Z,1.5
2023-04-28T12:45:38.762Z,1.3
2023-04-28T12:46:45.764Z,1.7
2023-04-28T12:47:53.443Z,1.5
2023-04-28T12:49:03.081Z,1.7
2023-04-28T12:50:11.755Z,1.5
2023-04-28T12:51:20.940Z,1
2023-04-28T12:52:30.555Z,1.2
2023-04-28T12:53:38.234Z,0.8
2023-04-28T12:54:47.938Z,0.6
2023-04-28T12:55:57.661Z,0.6
2023-04-28T12:57:06.497Z,0.8
2023-04-28T12:58:16.065Z,0.7
2023-04-28T12:59:25.716Z,0.6
2023-04-28T13:00:34.399Z,0.7
2023-04-28T13:01:44.068Z,0.6
2023-04-28T13:02:51.967Z,0.7
2023-04-28T13:04:01.750Z,0.7
2023-04-28T13:05:10.435Z,0.7
2023-04-28T13:06:18.008Z,0.7
2023-04-28T13:07:26.698Z,0.8
2023-04-28T13:08:35.377Z,0.7
2023-04-28T13:09:45.187Z,0.6
2023-04-28T13:10:54.686Z,0.7
2023-04-28T13:12:11.939Z,0.6
2023-04-28T13:13:20.631Z,0.9
2023-04-28T13:14:30.316Z,0.6
2023-04-28T13:15:39.089Z,0.5
2023-04-28T13:16:47.755Z,0.5
2023-04-28T13:17:56.459Z,0.6
2023-04-28T13:19:05.122Z,0.7
2023-04-28T13:20:14.855Z,0.6
2023-04-28T13:21:23.512Z,0.4
2023-04-28T13:22:31.188Z,0.3
2023-04-28T13:23:39.869Z,0.1
2023-04-28T13:24:48.599Z,0.2
2023-04-28T13:25:58.412Z,0.2
2023-04-28T13:27:08.090Z,0.2
2023-04-28T13:28:17.994Z,0.2
2023-04-28T13:29:27.698Z,0.2
2023-04-28T13:30:36.382Z,0.1
2023-04-28T13:31:45.124Z,0.1
2023-04-28T13:32:56.813Z,0.3
2023-04-28T13:34:03.513Z,0.1
2023-04-28T13:35:12.168Z,0.1
2023-04-28T13:36:21.881Z,0.2
2023-04-28T13:37:29.543Z,0.1
2023-04-28T13:38:39.233Z,0.2
2023-04-28T13:39:48.900Z,0.2
2023-04-28T13:40:57.614Z,0.2
2023-04-28T13:42:07.333Z,0.2
2023-04-28T13:43:16.017Z,0.1
2023-04-28T13:44:24.697Z,0.2
2023-04-28T13:45:34.473Z,0.2
2023-04-28T13:46:43.111Z,0.2
2023-04-28T13:47:52.847Z,0.3
2023-04-28T13:49:02.412Z,0.4
2023-04-28T13:50:10.103Z,0.4
2023-04-28T13:51:19.825Z,0.4
2023-04-28T13:52:27.476Z,0.3
2023-04-28T13:53:36.205Z,0.4
2023-04-28T13:54:45.987Z,0.3
2023-04-28T13:55:54.506Z,0.1
2023-04-28T13:57:04.212Z,0.2
2023-04-28T13:58:13.895Z,0.1
2023-04-28T13:59:22.570Z,0.1
2023-04-28T14:00:32.310Z,0.2
2023-04-28T14:01:40.148Z,0.1
2023-04-28T14:02:49.948Z,0.1
2023-04-28T14:03:59.480Z,0.1
2023-04-28T14:05:09.090Z,0.2
2023-04-28T14:06:18.867Z,1.7
2023-04-28T14:07:27.557Z,0.1
2023-04-28T14:08:36.233Z,0.1
2023-04-28T14:09:46.189Z,0.2
2023-04-28T14:10:54.624Z,0.1
2023-04-28T14:12:03.318Z,0.1
2023-04-28T14:13:14.019Z,0.1
2023-04-28T14:14:22.666Z,0.1
2023-04-28T14:15:32.359Z,0.1
2023-04-28T14:16:41.209Z,0.1
2023-04-28T14:17:49.899Z,0.2
2023-04-28T14:18:59.509Z,0.1
2023-04-28T14:20:07.193Z,0.1
2023-04-28T14:21:16.941Z,0.1
2023-04-28T14:22:26.573Z,0.1
2023-04-28T14:23:34.257Z,0.1
2023-04-28T14:24:44.040Z,0.1
2023-04-28T14:25:54.620Z,0.1
2023-04-28T14:27:01.382Z,0.2
2023-04-28T14:28:11.045Z,0.2
2023-04-28T14:29:18.727Z,0.1
2023-04-28T14:30:28.409Z,0.2
2023-04-28T14:31:38.198Z,0.2
2023-04-28T14:32:47.814Z,0.1
2023-04-28T14:33:57.476Z,0.2
2023-04-28T14:35:06.132Z,0.2
2023-04-28T14:36:15.830Z,0.2
2023-04-28T14:37:25.584Z,0.1
2023-04-28T14:38:33.254Z,0.1
2023-04-28T14:39:41.956Z,0
2023-04-28T14:40:51.618Z,0
2023-04-28T14:42:00.331Z,0.1
2023-04-28T14:43:10.007Z,0.1
2023-04-28T14:44:19.730Z,0.2
2023-04-28T14:45:28.421Z,0.1
2023-04-28T14:46:37.193Z,0.1
2023-04-28T14:47:45.904Z,0.2
2023-04-28T14:48:55.540Z,0.1
2023-04-28T14:50:04.278Z,0.1
2023-04-28T14:51:12.949Z,0.2
2023-04-28T14:52:21.676Z,0.1
2023-04-28T14:53:31.349Z,0.1
2023-04-28T14:54:41.000Z,0.3
2023-04-28T14:55:50.655Z,0.1
2023-04-28T14:57:00.338Z,0.1
2023-04-28T14:58:10.029Z,0.2
2023-04-28T14:59:19.678Z,0.2
2023-04-28T15:00:29.399Z,0.2
2023-04-28T15:01:38.059Z,0.2
2023-04-28T15:02:47.822Z,0.1
2023-04-28T15:03:56.506Z,0.2
2023-04-28T15:05:05.112Z,0.2
2023-04-28T15:06:14.768Z,0.3
2023-04-28T15:07:23.414Z,0.2
2023-04-28T15:08:33.204Z,0.3
2023-04-28T15:09:42.092Z,0.2
2023-04-28T15:10:49.761Z,0.2
2023-04-28T15:11:59.533Z,0.1
2023-04-28T15:13:09.262Z,0.2
2023-04-28T15:14:17.977Z,0.2
2023-04-28T15:15:27.680Z,0.2
2023-04-28T15:16:35.444Z,0.3
2023-04-28T15:17:45.107Z,0.2
2023-04-28T15:18:53.774Z,0.4
2023-04-28T15:20:01.439Z,0.4
2023-04-28T15:21:11.097Z,0.3
2023-04-28T15:22:19.846Z,0.2
2023-04-28T15:23:28.472Z,0.2
2023-04-28T15:24:38.129Z,0.2
2023-04-28T15:25:46.778Z,0.3
2023-04-28T15:26:56.495Z,0.2
2023-04-28T15:28:05.178Z,0.3
2023-04-28T15:29:14.849Z,0.4
2023-04-28T15:30:23.492Z,0.4
2023-04-28T15:31:32.215Z,0.4
2023-04-28T15:32:42.081Z,0.4
2023-04-28T15:33:51.773Z,0.5
2023-04-28T15:34:59.493Z,0.4
2023-04-28T15:36:09.183Z,0.5
2023-04-28T15:37:18.962Z,0.4
2023-04-28T15:38:29.792Z,0.3
2023-04-28T15:39:39.468Z,0.5
2023-04-28T15:40:48.163Z,0.4
2023-04-28T15:41:57.869Z,0.4
2023-04-28T15:43:07.574Z,0.3
2023-04-28T15:44:16.253Z,0.6
2023-04-28T15:45:25.963Z,0.3
2023-04-28T15:46:35.639Z,0.2
2023-04-28T15:47:43.333Z,0.2
2023-04-28T15:48:53.035Z,0.3
2023-04-28T15:50:00.718Z,0.2
2023-04-28T15:51:09.437Z,0.3
2023-04-28T15:52:19.453Z,0.3
2023-04-28T15:53:29.201Z,0.5
2023-04-28T15:54:38.924Z,0.5
2023-04-28T15:55:47.580Z,0.3
2023-04-28T15:56:55.317Z,0.3
2023-04-28T15:58:05.181Z,0.2
2023-04-28T15:59:13.832Z,0.2